sensor_id;sensor_type;location;lat;lon;timestamp;P1;durP1;ratioP1;P2;durP2;ratioP2
46028;SDS011;31763;48.180;7.904;2023-09-18T00:01:01;6.25;;;2.20;;
46028;SDS011;31763;48.180;7.904;2023-09-18T00:03:29;5.28;;;1.77;;
46028;SDS011;31763;48.180;7.904;2023-09-18T00:05:56;5.75;;;2.35;;
46028;SDS011;31763;48.180;7.904;2023-09-18T00:08:24;4.15;;;1.50;;
46028;SDS011;31763;48.180;7.904;2023-09-18T00:10:52;8.02;;;2.10;;
46028;SDS011;31763;48.180;7.904;2023-09-18T00:13:21;3.13;;;1.70;;
46028;SDS011;31763;48.180;7.904;2023-09-18T00:15:49;3.85;;;2.17;;
46028;SDS011;31763;48.180;7.904;2023-09-18T00:18:20;3.08;;;1.85;;
46028;SDS011;31763;48.180;7.904;2023-09-18T00:20:48;6.63;;;1.83;;
46028;SDS011;31763;48.180;7.904;2023-09-18T00:23:15;6.18;;;1.98;;
46028;SDS011;31763;48.180;7.904;2023-09-18T00:25:42;9.05;;;3.70;;
46028;SDS011;31763;48.180;7.904;2023-09-18T00:28:10;6.72;;;2.05;;
46028;SDS011;31763;48.180;7.904;2023-09-18T00:30:39;8.02;;;2.53;;
46028;SDS011;31763;48.180;7.904;2023-09-18T00:33:12;9.23;;;2.40;;
46028;SDS011;31763;48.180;7.904;2023-09-18T00:35:40;5.25;;;2.75;;
46028;SDS011;31763;48.180;7.904;2023-09-18T00:38:11;6.00;;;2.15;;
46028;SDS011;31763;48.180;7.904;2023-09-18T00:40:38;9.25;;;2.85;;
46028;SDS011;31763;48.180;7.904;2023-09-18T00:43:05;5.20;;;2.30;;
46028;SDS011;31763;48.180;7.904;2023-09-18T00:45:33;8.40;;;2.63;;
46028;SDS011;31763;48.180;7.904;2023-09-18T00:48:01;6.68;;;2.83;;
46028;SDS011;31763;48.180;7.904;2023-09-18T00:50:28;7.32;;;2.28;;
46028;SDS011;31763;48.180;7.904;2023-09-18T00:52:56;5.72;;;2.28;;
46028;SDS011;31763;48.180;7.904;2023-09-18T00:55:23;7.63;;;3.03;;
46028;SDS011;31763;48.180;7.904;2023-09-18T00:57:50;7.93;;;2.20;;
46028;SDS011;31763;48.180;7.904;2023-09-18T01:00:17;5.18;;;1.95;;
46028;SDS011;31763;48.180;7.904;2023-09-18T01:02:45;5.50;;;1.70;;
46028;SDS011;31763;48.180;7.904;2023-09-18T01:05:12;5.57;;;2.00;;
46028;SDS011;31763;48.180;7.904;2023-09-18T01:07:55;5.97;;;2.08;;
46028;SDS011;31763;48.180;7.904;2023-09-18T01:13:21;5.20;;;1.95;;
46028;SDS011;31763;48.180;7.904;2023-09-18T01:19:48;7.72;;;2.38;;
46028;SDS011;31763;48.180;7.904;2023-09-18T01:25:26;5.80;;;2.30;;
46028;SDS011;31763;48.180;7.904;2023-09-18T01:28:09;4.85;;;2.00;;
46028;SDS011;31763;48.180;7.904;2023-09-18T01:31:06;7.95;;;2.53;;
46028;SDS011;31763;48.180;7.904;2023-09-18T01:33:34;5.43;;;1.88;;
46028;SDS011;31763;48.180;7.904;2023-09-18T01:36:02;9.68;;;2.55;;
46028;SDS011;31763;48.180;7.904;2023-09-18T01:38:30;7.82;;;2.10;;
46028;SDS011;31763;48.180;7.904;2023-09-18T01:40:58;9.88;;;2.20;;
46028;SDS011;31763;48.180;7.904;2023-09-18T01:43:25;6.65;;;2.63;;
46028;SDS011;31763;48.180;7.904;2023-09-18T01:45:53;3.97;;;2.00;;
46028;SDS011;31763;48.180;7.904;2023-09-18T01:48:21;9.25;;;2.42;;
46028;SDS011;31763;48.180;7.904;2023-09-18T01:50:49;8.13;;;1.67;;
46028;SDS011;31763;48.180;7.904;2023-09-18T01:53:16;10.32;;;1.55;;
46028;SDS011;31763;48.180;7.904;2023-09-18T01:55:44;4.13;;;1.85;;
46028;SDS011;31763;48.180;7.904;2023-09-18T01:58:11;12.60;;;3.08;;
46028;SDS011;31763;48.180;7.904;2023-09-18T02:00:41;8.10;;;1.92;;
46028;SDS011;31763;48.180;7.904;2023-09-18T02:03:09;7.47;;;2.10;;
46028;SDS011;31763;48.180;7.904;2023-09-18T02:05:56;6.90;;;2.30;;
46028;SDS011;31763;48.180;7.904;2023-09-18T02:08:24;6.47;;;1.85;;
46028;SDS011;31763;48.180;7.904;2023-09-18T02:10:51;8.30;;;2.63;;
46028;SDS011;31763;48.180;7.904;2023-09-18T02:13:19;6.82;;;2.30;;
46028;SDS011;31763;48.180;7.904;2023-09-18T02:15:46;6.60;;;2.65;;
46028;SDS011;31763;48.180;7.904;2023-09-18T02:18:13;7.93;;;1.95;;
46028;SDS011;31763;48.180;7.904;2023-09-18T02:20:42;5.95;;;2.17;;
46028;SDS011;31763;48.180;7.904;2023-09-18T02:23:13;5.95;;;1.85;;
46028;SDS011;31763;48.180;7.904;2023-09-18T02:25:41;6.60;;;2.25;;
46028;SDS011;31763;48.180;7.904;2023-09-18T02:28:08;8.02;;;1.90;;
46028;SDS011;31763;48.180;7.904;2023-09-18T02:30:36;5.38;;;1.75;;
46028;SDS011;31763;48.180;7.904;2023-09-18T02:33:03;8.38;;;2.22;;
46028;SDS011;31763;48.180;7.904;2023-09-18T02:35:31;7.05;;;2.13;;
46028;SDS011;31763;48.180;7.904;2023-09-18T02:37:58;11.80;;;2.40;;
46028;SDS011;31763;48.180;7.904;2023-09-18T02:40:26;7.28;;;2.58;;
46028;SDS011;31763;48.180;7.904;2023-09-18T02:42:54;5.10;;;1.70;;
46028;SDS011;31763;48.180;7.904;2023-09-18T02:45:21;17.10;;;3.42;;
46028;SDS011;31763;48.180;7.904;2023-09-18T02:47:48;15.02;;;3.63;;
46028;SDS011;31763;48.180;7.904;2023-09-18T02:50:16;17.58;;;4.55;;
46028;SDS011;31763;48.180;7.904;2023-09-18T02:52:43;10.98;;;3.47;;
46028;SDS011;31763;48.180;7.904;2023-09-18T02:55:10;10.98;;;3.70;;
46028;SDS011;31763;48.180;7.904;2023-09-18T02:57:39;2.75;;;1.20;;
46028;SDS011;31763;48.180;7.904;2023-09-18T03:00:07;12.85;;;2.88;;
46028;SDS011;31763;48.180;7.904;2023-09-18T03:02:35;13.45;;;3.85;;
46028;SDS011;31763;48.180;7.904;2023-09-18T03:05:03;9.95;;;3.58;;
46028;SDS011;31763;48.180;7.904;2023-09-18T03:07:31;8.07;;;3.67;;
46028;SDS011;31763;48.180;7.904;2023-09-18T03:09:58;11.27;;;3.22;;
46028;SDS011;31763;48.180;7.904;2023-09-18T03:12:25;8.05;;;3.42;;
46028;SDS011;31763;48.180;7.904;2023-09-18T03:14:53;10.43;;;3.75;;
46028;SDS011;31763;48.180;7.904;2023-09-18T03:17:20;9.20;;;3.60;;
46028;SDS011;31763;48.180;7.904;2023-09-18T03:19:48;9.85;;;3.55;;
46028;SDS011;31763;48.180;7.904;2023-09-18T03:22:15;11.05;;;3.80;;
46028;SDS011;31763;48.180;7.904;2023-09-18T03:24:43;18.60;;;4.95;;
46028;SDS011;31763;48.180;7.904;2023-09-18T03:27:10;17.23;;;4.50;;
46028;SDS011;31763;48.180;7.904;2023-09-18T03:29:37;15.25;;;4.65;;
46028;SDS011;31763;48.180;7.904;2023-09-18T03:32:04;13.10;;;4.32;;
46028;SDS011;31763;48.180;7.904;2023-09-18T03:34:32;18.30;;;5.25;;
46028;SDS011;31763;48.180;7.904;2023-09-18T03:36:59;10.38;;;4.18;;
46028;SDS011;31763;48.180;7.904;2023-09-18T03:39:26;13.98;;;4.35;;
46028;SDS011;31763;48.180;7.904;2023-09-18T03:41:54;13.65;;;4.20;;
46028;SDS011;31763;48.180;7.904;2023-09-18T03:44:21;14.95;;;4.13;;
46028;SDS011;31763;48.180;7.904;2023-09-18T03:46:49;9.48;;;4.22;;
46028;SDS011;31763;48.180;7.904;2023-09-18T03:49:16;14.13;;;4.47;;
46028;SDS011;31763;48.180;7.904;2023-09-18T03:51:43;15.77;;;4.38;;
46028;SDS011;31763;48.180;7.904;2023-09-18T03:54:11;12.93;;;3.60;;
46028;SDS011;31763;48.180;7.904;2023-09-18T03:56:38;14.55;;;3.03;;
46028;SDS011;31763;48.180;7.904;2023-09-18T03:59:05;8.90;;;2.88;;
46028;SDS011;31763;48.180;7.904;2023-09-18T04:01:33;11.35;;;3.13;;
46028;SDS011;31763;48.180;7.904;2023-09-18T04:04:00;10.60;;;3.25;;
46028;SDS011;31763;48.180;7.904;2023-09-18T04:06:40;15.20;;;4.43;;
46028;SDS011;31763;48.180;7.904;2023-09-18T04:09:08;11.93;;;2.97;;
46028;SDS011;31763;48.180;7.904;2023-09-18T04:11:36;15.00;;;3.65;;
46028;SDS011;31763;48.180;7.904;2023-09-18T04:14:03;8.45;;;2.35;;
46028;SDS011;31763;48.180;7.904;2023-09-18T04:16:31;11.25;;;2.78;;
46028;SDS011;31763;48.180;7.904;2023-09-18T04:19:01;14.50;;;3.58;;
46028;SDS011;31763;48.180;7.904;2023-09-18T04:21:29;13.82;;;2.80;;
46028;SDS011;31763;48.180;7.904;2023-09-18T04:23:56;5.53;;;2.05;;
46028;SDS011;31763;48.180;7.904;2023-09-18T04:26:25;9.48;;;2.70;;
46028;SDS011;31763;48.180;7.904;2023-09-18T04:28:57;7.43;;;2.10;;
46028;SDS011;31763;48.180;7.904;2023-09-18T04:31:25;11.18;;;2.22;;
46028;SDS011;31763;48.180;7.904;2023-09-18T04:33:53;8.25;;;2.65;;
46028;SDS011;31763;48.180;7.904;2023-09-18T04:36:21;5.88;;;2.10;;
46028;SDS011;31763;48.180;7.904;2023-09-18T04:38:49;7.20;;;2.10;;
46028;SDS011;31763;48.180;7.904;2023-09-18T04:41:17;8.70;;;2.35;;
46028;SDS011;31763;48.180;7.904;2023-09-18T04:43:44;6.78;;;2.10;;
46028;SDS011;31763;48.180;7.904;2023-09-18T04:46:12;8.02;;;2.30;;
46028;SDS011;31763;48.180;7.904;2023-09-18T04:48:39;5.45;;;1.60;;
46028;SDS011;31763;48.180;7.904;2023-09-18T04:51:07;6.50;;;1.80;;
46028;SDS011;31763;48.180;7.904;2023-09-18T04:53:34;4.30;;;1.30;;
46028;SDS011;31763;48.180;7.904;2023-09-18T04:56:01;7.80;;;2.35;;
46028;SDS011;31763;48.180;7.904;2023-09-18T04:58:30;8.75;;;1.40;;
46028;SDS011;31763;48.180;7.904;2023-09-18T05:00:58;5.32;;;1.65;;
46028;SDS011;31763;48.180;7.904;2023-09-18T05:03:26;4.72;;;1.13;;
46028;SDS011;31763;48.180;7.904;2023-09-18T05:05:55;3.03;;;1.10;;
46028;SDS011;31763;48.180;7.904;2023-09-18T05:08:23;2.08;;;1.02;;
46028;SDS011;31763;48.180;7.904;2023-09-18T05:10:50;4.55;;;0.93;;
46028;SDS011;31763;48.180;7.904;2023-09-18T05:13:18;4.78;;;1.30;;
46028;SDS011;31763;48.180;7.904;2023-09-18T05:15:45;6.97;;;1.50;;
46028;SDS011;31763;48.180;7.904;2023-09-18T05:18:12;6.43;;;1.30;;
46028;SDS011;31763;48.180;7.904;2023-09-18T05:20:40;2.65;;;1.30;;
46028;SDS011;31763;48.180;7.904;2023-09-18T05:23:07;3.42;;;1.00;;
46028;SDS011;31763;48.180;7.904;2023-09-18T05:25:34;3.33;;;0.90;;
46028;SDS011;31763;48.180;7.904;2023-09-18T05:28:04;4.50;;;1.67;;
46028;SDS011;31763;48.180;7.904;2023-09-18T05:30:32;4.95;;;1.08;;
46028;SDS011;31763;48.180;7.904;2023-09-18T05:33:02;2.13;;;0.88;;
46028;SDS011;31763;48.180;7.904;2023-09-18T05:35:34;2.92;;;0.90;;
46028;SDS011;31763;48.180;7.904;2023-09-18T05:38:10;2.53;;;0.80;;
46028;SDS011;31763;48.180;7.904;2023-09-18T05:40:40;3.08;;;1.00;;
46028;SDS011;31763;48.180;7.904;2023-09-18T05:43:07;3.33;;;1.02;;
46028;SDS011;31763;48.180;7.904;2023-09-18T05:45:35;6.03;;;1.13;;
46028;SDS011;31763;48.180;7.904;2023-09-18T05:48:02;1.88;;;0.80;;
46028;SDS011;31763;48.180;7.904;2023-09-18T05:50:31;6.22;;;1.13;;
46028;SDS011;31763;48.180;7.904;2023-09-18T05:53:01;3.83;;;0.98;;
46028;SDS011;31763;48.180;7.904;2023-09-18T05:55:31;5.53;;;1.30;;
46028;SDS011;31763;48.180;7.904;2023-09-18T05:57:59;4.60;;;1.67;;
46028;SDS011;31763;48.180;7.904;2023-09-18T06:00:29;9.55;;;1.52;;
46028;SDS011;31763;48.180;7.904;2023-09-18T06:02:57;3.17;;;1.10;;
46028;SDS011;31763;48.180;7.904;2023-09-18T06:05:25;2.65;;;1.42;;
46028;SDS011;31763;48.180;7.904;2023-09-18T06:07:52;6.57;;;1.85;;
46028;SDS011;31763;48.180;7.904;2023-09-18T06:10:20;8.05;;;2.05;;
46028;SDS011;31763;48.180;7.904;2023-09-18T06:12:47;4.53;;;1.23;;
46028;SDS011;31763;48.180;7.904;2023-09-18T06:15:14;4.30;;;1.40;;
46028;SDS011;31763;48.180;7.904;2023-09-18T06:17:42;4.43;;;1.25;;
46028;SDS011;31763;48.180;7.904;2023-09-18T06:20:11;5.43;;;1.52;;
46028;SDS011;31763;48.180;7.904;2023-09-18T06:22:39;6.35;;;1.00;;
46028;SDS011;31763;48.180;7.904;2023-09-18T06:25:07;5.72;;;1.30;;
46028;SDS011;31763;48.180;7.904;2023-09-18T06:27:39;3.53;;;1.25;;
46028;SDS011;31763;48.180;7.904;2023-09-18T06:30:06;4.75;;;1.08;;
46028;SDS011;31763;48.180;7.904;2023-09-18T06:32:34;5.60;;;1.27;;
46028;SDS011;31763;48.180;7.904;2023-09-18T06:35:03;11.13;;;1.80;;
46028;SDS011;31763;48.180;7.904;2023-09-18T06:37:31;3.88;;;1.35;;
46028;SDS011;31763;48.180;7.904;2023-09-18T06:39:58;6.57;;;1.30;;
46028;SDS011;31763;48.180;7.904;2023-09-18T06:42:26;2.67;;;1.08;;
46028;SDS011;31763;48.180;7.904;2023-09-18T06:44:53;4.25;;;1.17;;
46028;SDS011;31763;48.180;7.904;2023-09-18T06:47:21;3.15;;;1.23;;
46028;SDS011;31763;48.180;7.904;2023-09-18T06:49:50;5.15;;;1.42;;
46028;SDS011;31763;48.180;7.904;2023-09-18T06:52:18;3.80;;;1.50;;
46028;SDS011;31763;48.180;7.904;2023-09-18T06:54:45;6.00;;;1.20;;
46028;SDS011;31763;48.180;7.904;2023-09-18T06:57:12;6.15;;;2.63;;
46028;SDS011;31763;48.180;7.904;2023-09-18T06:59:39;5.70;;;1.92;;
46028;SDS011;31763;48.180;7.904;2023-09-18T07:02:07;5.93;;;1.83;;
46028;SDS011;31763;48.180;7.904;2023-09-18T07:04:34;5.70;;;1.60;;
46028;SDS011;31763;48.180;7.904;2023-09-18T07:07:03;7.88;;;1.88;;
46028;SDS011;31763;48.180;7.904;2023-09-18T07:09:30;5.95;;;1.60;;
46028;SDS011;31763;48.180;7.904;2023-09-18T07:12:02;4.68;;;1.20;;
46028;SDS011;31763;48.180;7.904;2023-09-18T07:14:29;7.50;;;1.63;;
46028;SDS011;31763;48.180;7.904;2023-09-18T07:16:57;4.80;;;1.08;;
46028;SDS011;31763;48.180;7.904;2023-09-18T07:19:25;4.75;;;1.15;;
46028;SDS011;31763;48.180;7.904;2023-09-18T07:21:52;2.78;;;1.10;;
46028;SDS011;31763;48.180;7.904;2023-09-18T07:24:19;3.83;;;1.15;;
46028;SDS011;31763;48.180;7.904;2023-09-18T07:26:47;7.90;;;1.92;;
46028;SDS011;31763;48.180;7.904;2023-09-18T07:29:15;5.10;;;1.30;;
46028;SDS011;31763;48.180;7.904;2023-09-18T07:31:43;6.43;;;1.15;;
46028;SDS011;31763;48.180;7.904;2023-09-18T07:34:10;5.78;;;1.25;;
46028;SDS011;31763;48.180;7.904;2023-09-18T07:36:39;2.95;;;1.08;;
46028;SDS011;31763;48.180;7.904;2023-09-18T07:39:07;4.38;;;0.88;;
46028;SDS011;31763;48.180;7.904;2023-09-18T07:41:34;3.75;;;1.10;;
46028;SDS011;31763;48.180;7.904;2023-09-18T07:44:01;5.07;;;1.45;;
46028;SDS011;31763;48.180;7.904;2023-09-18T07:46:29;6.32;;;1.15;;
46028;SDS011;31763;48.180;7.904;2023-09-18T07:48:56;2.88;;;0.90;;
46028;SDS011;31763;48.180;7.904;2023-09-18T07:51:23;2.47;;;1.00;;
46028;SDS011;31763;48.180;7.904;2023-09-18T07:53:51;3.22;;;0.98;;
46028;SDS011;31763;48.180;7.904;2023-09-18T07:56:18;5.18;;;1.02;;
46028;SDS011;31763;48.180;7.904;2023-09-18T07:58:45;5.55;;;1.10;;
46028;SDS011;31763;48.180;7.904;2023-09-18T08:01:13;2.67;;;1.00;;
46028;SDS011;31763;48.180;7.904;2023-09-18T08:03:42;6.22;;;1.25;;
46028;SDS011;31763;48.180;7.904;2023-09-18T08:06:10;5.10;;;1.20;;
46028;SDS011;31763;48.180;7.904;2023-09-18T08:08:38;5.00;;;1.25;;
46028;SDS011;31763;48.180;7.904;2023-09-18T08:11:08;4.05;;;1.00;;
46028;SDS011;31763;48.180;7.904;2023-09-18T08:13:36;2.70;;;0.98;;
46028;SDS011;31763;48.180;7.904;2023-09-18T08:16:06;3.05;;;0.80;;
46028;SDS011;31763;48.180;7.904;2023-09-18T08:21:02;2.47;;;0.90;;
46028;SDS011;31763;48.180;7.904;2023-09-18T08:23:31;3.22;;;1.00;;
46028;SDS011;31763;48.180;7.904;2023-09-18T08:25:59;2.80;;;1.00;;
46028;SDS011;31763;48.180;7.904;2023-09-18T08:28:27;3.10;;;0.80;;
46028;SDS011;31763;48.180;7.904;2023-09-18T08:30:54;2.25;;;0.90;;
46028;SDS011;31763;48.180;7.904;2023-09-18T08:33:22;1.67;;;0.52;;
46028;SDS011;31763;48.180;7.904;2023-09-18T08:35:49;5.88;;;0.88;;
46028;SDS011;31763;48.180;7.904;2023-09-18T08:38:16;2.03;;;0.80;;
46028;SDS011;31763;48.180;7.904;2023-09-18T08:40:44;2.15;;;0.73;;
46028;SDS011;31763;48.180;7.904;2023-09-18T08:43:12;1.98;;;0.77;;
46028;SDS011;31763;48.180;7.904;2023-09-18T08:45:46;5.05;;;0.95;;
46028;SDS011;31763;48.180;7.904;2023-09-18T08:48:22;3.03;;;0.75;;
46028;SDS011;31763;48.180;7.904;2023-09-18T08:50:49;2.17;;;0.95;;
46028;SDS011;31763;48.180;7.904;2023-09-18T08:53:17;1.80;;;0.93;;
46028;SDS011;31763;48.180;7.904;2023-09-18T08:55:45;3.50;;;0.77;;
46028;SDS011;31763;48.180;7.904;2023-09-18T08:58:12;2.45;;;0.50;;
46028;SDS011;31763;48.180;7.904;2023-09-18T09:00:40;1.00;;;0.60;;
46028;SDS011;31763;48.180;7.904;2023-09-18T09:03:09;1.90;;;0.70;;
46028;SDS011;31763;48.180;7.904;2023-09-18T09:05:36;1.55;;;0.63;;
46028;SDS011;31763;48.180;7.904;2023-09-18T09:08:03;2.22;;;0.70;;
46028;SDS011;31763;48.180;7.904;2023-09-18T09:10:31;3.75;;;0.75;;
46028;SDS011;31763;48.180;7.904;2023-09-18T09:12:58;3.88;;;0.80;;
46028;SDS011;31763;48.180;7.904;2023-09-18T09:15:28;1.98;;;0.70;;
46028;SDS011;31763;48.180;7.904;2023-09-18T09:18:13;3.85;;;0.70;;
46028;SDS011;31763;48.180;7.904;2023-09-18T09:20:54;1.35;;;0.70;;
46028;SDS011;31763;48.180;7.904;2023-09-18T09:23:24;1.00;;;0.57;;
46028;SDS011;31763;48.180;7.904;2023-09-18T09:25:52;3.88;;;0.80;;
46028;SDS011;31763;48.180;7.904;2023-09-18T09:28:28;3.83;;;0.80;;
46028;SDS011;31763;48.180;7.904;2023-09-18T09:31:00;2.00;;;0.77;;
46028;SDS011;31763;48.180;7.904;2023-09-18T09:33:32;2.78;;;0.63;;
46028;SDS011;31763;48.180;7.904;2023-09-18T09:35:59;1.98;;;0.80;;
46028;SDS011;31763;48.180;7.904;2023-09-18T09:38:30;4.50;;;1.08;;
46028;SDS011;31763;48.180;7.904;2023-09-18T09:41:03;2.60;;;0.80;;
46028;SDS011;31763;48.180;7.904;2023-09-18T09:43:33;2.58;;;1.05;;
46028;SDS011;31763;48.180;7.904;2023-09-18T09:46:00;1.42;;;0.90;;
46028;SDS011;31763;48.180;7.904;2023-09-18T09:48:28;2.17;;;0.90;;
46028;SDS011;31763;48.180;7.904;2023-09-18T09:53:41;1.20;;;0.60;;
46028;SDS011;31763;48.180;7.904;2023-09-18T09:56:10;2.78;;;1.20;;
46028;SDS011;31763;48.180;7.904;2023-09-18T09:58:38;1.15;;;0.70;;
46028;SDS011;31763;48.180;7.904;2023-09-18T10:01:11;1.15;;;0.90;;
46028;SDS011;31763;48.180;7.904;2023-09-18T10:03:44;1.83;;;0.98;;
46028;SDS011;31763;48.180;7.904;2023-09-18T10:06:13;2.30;;;1.00;;
46028;SDS011;31763;48.180;7.904;2023-09-18T10:08:40;1.50;;;0.70;;
46028;SDS011;31763;48.180;7.904;2023-09-18T10:11:08;3.00;;;0.68;;
46028;SDS011;31763;48.180;7.904;2023-09-18T10:13:42;2.10;;;0.90;;
46028;SDS011;31763;48.180;7.904;2023-09-18T10:16:18;1.83;;;0.82;;
46028;SDS011;31763;48.180;7.904;2023-09-18T10:24:03;3.33;;;1.07;;
46028;SDS011;31763;48.180;7.904;2023-09-18T10:26:35;3.78;;;0.70;;
46028;SDS011;31763;48.180;7.904;2023-09-18T10:29:07;2.25;;;0.70;;
46028;SDS011;31763;48.180;7.904;2023-09-18T10:31:37;3.53;;;0.90;;
46028;SDS011;31763;48.180;7.904;2023-09-18T10:34:07;6.93;;;1.23;;
46028;SDS011;31763;48.180;7.904;2023-09-18T10:36:35;3.13;;;0.93;;
46028;SDS011;31763;48.180;7.904;2023-09-18T10:39:03;2.75;;;0.80;;
46028;SDS011;31763;48.180;7.904;2023-09-18T10:41:34;3.15;;;0.70;;
46028;SDS011;31763;48.180;7.904;2023-09-18T10:44:02;1.65;;;0.85;;
46028;SDS011;31763;48.180;7.904;2023-09-18T10:46:31;1.48;;;0.80;;
46028;SDS011;31763;48.180;7.904;2023-09-18T10:48:59;3.65;;;0.80;;
46028;SDS011;31763;48.180;7.904;2023-09-18T10:51:26;3.47;;;0.90;;
46028;SDS011;31763;48.180;7.904;2023-09-18T10:53:56;2.85;;;0.75;;
46028;SDS011;31763;48.180;7.904;2023-09-18T10:56:24;3.20;;;0.80;;
46028;SDS011;31763;48.180;7.904;2023-09-18T10:58:56;2.88;;;0.98;;
46028;SDS011;31763;48.180;7.904;2023-09-18T11:01:30;2.65;;;0.70;;
46028;SDS011;31763;48.180;7.904;2023-09-18T11:03:58;1.13;;;0.80;;
46028;SDS011;31763;48.180;7.904;2023-09-18T11:09:24;4.93;;;1.17;;
46028;SDS011;31763;48.180;7.904;2023-09-18T11:11:53;2.15;;;1.10;;
46028;SDS011;31763;48.180;7.904;2023-09-18T11:22:47;2.97;;;0.70;;
46028;SDS011;31763;48.180;7.904;2023-09-18T11:28:15;3.05;;;0.80;;
46028;SDS011;31763;48.180;7.904;2023-09-18T11:30:50;3.55;;;0.90;;
46028;SDS011;31763;48.180;7.904;2023-09-18T11:36:06;1.85;;;0.90;;
46028;SDS011;31763;48.180;7.904;2023-09-18T11:38:54;7.22;;;0.80;;
46028;SDS011;31763;48.180;7.904;2023-09-18T11:41:26;2.38;;;1.00;;
46028;SDS011;31763;48.180;7.904;2023-09-18T11:46:39;2.00;;;1.00;;
46028;SDS011;31763;48.180;7.904;2023-09-18T11:49:11;2.35;;;0.95;;
46028;SDS011;31763;48.180;7.904;2023-09-18T11:51:46;3.20;;;1.02;;
46028;SDS011;31763;48.180;7.904;2023-09-18T11:54:13;1.05;;;0.60;;
46028;SDS011;31763;48.180;7.904;2023-09-18T11:56:43;2.08;;;0.57;;
46028;SDS011;31763;48.180;7.904;2023-09-18T11:59:11;3.00;;;0.77;;
46028;SDS011;31763;48.180;7.904;2023-09-18T12:01:39;2.40;;;0.93;;
46028;SDS011;31763;48.180;7.904;2023-09-18T12:04:07;1.23;;;0.80;;
46028;SDS011;31763;48.180;7.904;2023-09-18T12:06:35;3.15;;;0.77;;
46028;SDS011;31763;48.180;7.904;2023-09-18T12:09:04;2.95;;;0.90;;
46028;SDS011;31763;48.180;7.904;2023-09-18T12:11:32;2.65;;;0.70;;
46028;SDS011;31763;48.180;7.904;2023-09-18T12:14:08;2.80;;;0.90;;
46028;SDS011;31763;48.180;7.904;2023-09-18T12:16:39;4.28;;;0.90;;
46028;SDS011;31763;48.180;7.904;2023-09-18T12:19:06;1.67;;;0.80;;
46028;SDS011;31763;48.180;7.904;2023-09-18T12:21:40;1.30;;;0.77;;
46028;SDS011;31763;48.180;7.904;2023-09-18T12:24:15;1.42;;;0.77;;
46028;SDS011;31763;48.180;7.904;2023-09-18T12:26:49;2.50;;;1.13;;
46028;SDS011;31763;48.180;7.904;2023-09-18T12:29:18;2.85;;;0.90;;
46028;SDS011;31763;48.180;7.904;2023-09-18T12:31:46;0.98;;;0.70;;
46028;SDS011;31763;48.180;7.904;2023-09-18T12:34:15;2.92;;;0.75;;
46028;SDS011;31763;48.180;7.904;2023-09-18T12:36:43;1.40;;;0.82;;
46028;SDS011;31763;48.180;7.904;2023-09-18T12:39:13;2.38;;;1.00;;
46028;SDS011;31763;48.180;7.904;2023-09-18T12:41:45;2.50;;;0.80;;
46028;SDS011;31763;48.180;7.904;2023-09-18T12:44:13;1.05;;;0.70;;
46028;SDS011;31763;48.180;7.904;2023-09-18T12:46:42;4.07;;;0.82;;
46028;SDS011;31763;48.180;7.904;2023-09-18T12:49:23;3.05;;;0.80;;
46028;SDS011;31763;48.180;7.904;2023-09-18T12:51:58;3.40;;;0.75;;
46028;SDS011;31763;48.180;7.904;2023-09-18T12:54:36;2.65;;;1.08;;
46028;SDS011;31763;48.180;7.904;2023-09-18T12:57:09;2.85;;;0.80;;
46028;SDS011;31763;48.180;7.904;2023-09-18T12:59:37;2.95;;;1.05;;
46028;SDS011;31763;48.180;7.904;2023-09-18T13:02:05;2.20;;;1.10;;
46028;SDS011;31763;48.180;7.904;2023-09-18T13:04:34;6.00;;;1.38;;
46028;SDS011;31763;48.180;7.904;2023-09-18T13:07:08;2.00;;;0.85;;
46028;SDS011;31763;48.180;7.904;2023-09-18T13:09:38;2.20;;;0.77;;
46028;SDS011;31763;48.180;7.904;2023-09-18T13:12:06;3.17;;;0.90;;
46028;SDS011;31763;48.180;7.904;2023-09-18T13:17:43;2.25;;;0.88;;
46028;SDS011;31763;48.180;7.904;2023-09-18T13:20:12;2.28;;;0.80;;
46028;SDS011;31763;48.180;7.904;2023-09-18T13:22:41;1.40;;;0.90;;
46028;SDS011;31763;48.180;7.904;2023-09-18T13:25:18;2.17;;;0.77;;
46028;SDS011;31763;48.180;7.904;2023-09-18T13:27:50;1.83;;;0.68;;
46028;SDS011;31763;48.180;7.904;2023-09-18T13:30:19;1.60;;;0.98;;
46028;SDS011;31763;48.180;7.904;2023-09-18T13:32:48;3.78;;;0.93;;
46028;SDS011;31763;48.180;7.904;2023-09-18T13:35:17;2.95;;;0.90;;
46028;SDS011;31763;48.180;7.904;2023-09-18T13:37:45;1.20;;;0.65;;
46028;SDS011;31763;48.180;7.904;2023-09-18T13:40:12;2.20;;;0.82;;
46028;SDS011;31763;48.180;7.904;2023-09-18T13:42:40;2.03;;;1.15;;
46028;SDS011;31763;48.180;7.904;2023-09-18T13:45:07;1.55;;;0.63;;
46028;SDS011;31763;48.180;7.904;2023-09-18T13:47:35;3.00;;;0.60;;
46028;SDS011;31763;48.180;7.904;2023-09-18T13:50:03;3.65;;;0.95;;
46028;SDS011;31763;48.180;7.904;2023-09-18T13:52:32;1.83;;;0.90;;
46028;SDS011;31763;48.180;7.904;2023-09-18T13:55:04;1.55;;;0.80;;
46028;SDS011;31763;48.180;7.904;2023-09-18T13:57:32;2.05;;;0.93;;
46028;SDS011;31763;48.180;7.904;2023-09-18T14:00:02;3.50;;;1.15;;
46028;SDS011;31763;48.180;7.904;2023-09-18T14:02:34;1.13;;;0.60;;
46028;SDS011;31763;48.180;7.904;2023-09-18T14:05:02;1.58;;;0.88;;
46028;SDS011;31763;48.180;7.904;2023-09-18T14:07:30;2.60;;;1.10;;
46028;SDS011;31763;48.180;7.904;2023-09-18T14:09:57;2.65;;;1.42;;
46028;SDS011;31763;48.180;7.904;2023-09-18T14:12:24;3.25;;;1.05;;
46028;SDS011;31763;48.180;7.904;2023-09-18T14:14:52;3.53;;;0.93;;
46028;SDS011;31763;48.180;7.904;2023-09-18T14:17:19;2.15;;;1.10;;
46028;SDS011;31763;48.180;7.904;2023-09-18T14:19:48;1.20;;;0.73;;
46028;SDS011;31763;48.180;7.904;2023-09-18T14:22:15;1.05;;;0.95;;
46028;SDS011;31763;48.180;7.904;2023-09-18T14:24:42;3.60;;;0.80;;
46028;SDS011;31763;48.180;7.904;2023-09-18T14:27:09;1.63;;;0.77;;
46028;SDS011;31763;48.180;7.904;2023-09-18T14:29:38;1.83;;;0.90;;
46028;SDS011;31763;48.180;7.904;2023-09-18T14:32:06;1.10;;;0.80;;
46028;SDS011;31763;48.180;7.904;2023-09-18T14:34:35;3.20;;;1.27;;
46028;SDS011;31763;48.180;7.904;2023-09-18T14:37:02;1.60;;;0.82;;
46028;SDS011;31763;48.180;7.904;2023-09-18T14:39:30;4.07;;;0.80;;
46028;SDS011;31763;48.180;7.904;2023-09-18T14:41:59;3.20;;;1.10;;
46028;SDS011;31763;48.180;7.904;2023-09-18T14:44:26;1.75;;;0.90;;
46028;SDS011;31763;48.180;7.904;2023-09-18T14:46:54;1.77;;;0.85;;
46028;SDS011;31763;48.180;7.904;2023-09-18T14:49:22;2.40;;;1.00;;
46028;SDS011;31763;48.180;7.904;2023-09-18T14:51:49;3.10;;;0.85;;
46028;SDS011;31763;48.180;7.904;2023-09-18T14:54:19;1.70;;;0.73;;
46028;SDS011;31763;48.180;7.904;2023-09-18T14:56:46;4.47;;;0.77;;
46028;SDS011;31763;48.180;7.904;2023-09-18T14:59:14;3.20;;;0.90;;
46028;SDS011;31763;48.180;7.904;2023-09-18T15:01:57;1.05;;;0.60;;
46028;SDS011;31763;48.180;7.904;2023-09-18T15:04:24;1.70;;;0.90;;
46028;SDS011;31763;48.180;7.904;2023-09-18T15:06:52;2.70;;;0.82;;
46028;SDS011;31763;48.180;7.904;2023-09-18T15:09:19;3.65;;;0.98;;
46028;SDS011;31763;48.180;7.904;2023-09-18T15:11:46;1.95;;;0.65;;
46028;SDS011;31763;48.180;7.904;2023-09-18T15:14:13;1.90;;;1.15;;
46028;SDS011;31763;48.180;7.904;2023-09-18T15:16:41;2.60;;;0.80;;
46028;SDS011;31763;48.180;7.904;2023-09-18T15:19:09;2.17;;;1.00;;
46028;SDS011;31763;48.180;7.904;2023-09-18T15:21:36;4.13;;;1.05;;
46028;SDS011;31763;48.180;7.904;2023-09-18T15:24:07;1.88;;;0.80;;
46028;SDS011;31763;48.180;7.904;2023-09-18T15:26:35;2.50;;;0.73;;
46028;SDS011;31763;48.180;7.904;2023-09-18T15:29:03;2.53;;;0.95;;
46028;SDS011;31763;48.180;7.904;2023-09-18T15:31:30;3.03;;;0.95;;
46028;SDS011;31763;48.180;7.904;2023-09-18T15:33:57;6.18;;;1.30;;
46028;SDS011;31763;48.180;7.904;2023-09-18T15:36:25;2.70;;;1.00;;
46028;SDS011;31763;48.180;7.904;2023-09-18T15:38:52;1.85;;;1.65;;